sensor_id;sensor_type;location;lat;lon;timestamp;P1;durP1;ratioP1;P2;durP2;ratioP2
11064;SDS011;5585;52.530;7.320;2022-09-13T00:00:31;4.65;;;4.25;;
11064;SDS011;5585;52.530;7.320;2022-09-13T00:02:57;4.85;;;4.35;;
11064;SDS011;5585;52.530;7.320;2022-09-13T00:05:25;4.43;;;3.95;;
11064;SDS011;5585;52.530;7.320;2022-09-13T00:07:52;4.40;;;4.00;;
11064;SDS011;5585;52.530;7.320;2022-09-13T00:10:18;4.53;;;4.13;;
11064;SDS011;5585;52.530;7.320;2022-09-13T00:12:46;5.35;;;4.57;;
11064;SDS011;5585;52.530;7.320;2022-09-13T00:15:12;4.53;;;4.10;;
11064;SDS011;5585;52.530;7.320;2022-09-13T00:17:39;4.68;;;4.28;;
11064;SDS011;5585;52.530;7.320;2022-09-13T00:20:06;7.43;;;4.43;;
11064;SDS011;5585;52.530;7.320;2022-09-13T00:22:35;5.30;;;4.78;;
11064;SDS011;5585;52.530;7.320;2022-09-13T00:25:02;5.15;;;4.65;;
11064;SDS011;5585;52.530;7.320;2022-09-13T00:27:28;5.38;;;4.75;;
11064;SDS011;5585;52.530;7.320;2022-09-13T00:29:55;5.55;;;4.90;;
11064;SDS011;5585;52.530;7.320;2022-09-13T00:32:21;6.07;;;4.80;;
11064;SDS011;5585;52.530;7.320;2022-09-13T00:34:47;5.00;;;4.60;;
11064;SDS011;5585;52.530;7.320;2022-09-13T00:37:14;5.60;;;5.05;;
11064;SDS011;5585;52.530;7.320;2022-09-13T00:39:42;5.30;;;4.80;;
11064;SDS011;5585;52.530;7.320;2022-09-13T00:42:09;5.90;;;5.40;;
11064;SDS011;5585;52.530;7.320;2022-09-13T00:44:55;5.53;;;5.10;;
11064;SDS011;5585;52.530;7.320;2022-09-13T00:47:24;4.90;;;4.47;;
11064;SDS011;5585;52.530;7.320;2022-09-13T00:49:52;5.28;;;4.88;;
11064;SDS011;5585;52.530;7.320;2022-09-13T00:52:20;5.60;;;5.10;;
11064;SDS011;5585;52.530;7.320;2022-09-13T00:54:51;6.18;;;5.57;;
11064;SDS011;5585;52.530;7.320;2022-09-13T00:57:20;5.50;;;5.00;;
11064;SDS011;5585;52.530;7.320;2022-09-13T00:59:50;5.93;;;5.43;;
11064;SDS011;5585;52.530;7.320;2022-09-13T01:02:17;7.38;;;6.55;;
11064;SDS011;5585;52.530;7.320;2022-09-13T01:04:44;7.00;;;6.40;;
11064;SDS011;5585;52.530;7.320;2022-09-13T01:07:11;7.40;;;6.70;;
11064;SDS011;5585;52.530;7.320;2022-09-13T01:09:40;7.80;;;7.00;;
11064;SDS011;5585;52.530;7.320;2022-09-13T01:12:11;8.02;;;7.30;;
11064;SDS011;5585;52.530;7.320;2022-09-13T01:14:42;8.57;;;7.80;;
11064;SDS011;5585;52.530;7.320;2022-09-13T01:17:09;9.05;;;7.93;;
11064;SDS011;5585;52.530;7.320;2022-09-13T01:19:36;9.02;;;8.18;;
11064;SDS011;5585;52.530;7.320;2022-09-13T01:22:22;10.05;;;9.10;;
11064;SDS011;5585;52.530;7.320;2022-09-13T01:27:48;10.00;;;8.93;;
11064;SDS011;5585;52.530;7.320;2022-09-13T01:30:21;8.77;;;7.97;;
11064;SDS011;5585;52.530;7.320;2022-09-13T01:35:36;9.15;;;8.15;;
11064;SDS011;5585;52.530;7.320;2022-09-13T01:38:08;8.23;;;7.45;;
11064;SDS011;5585;52.530;7.320;2022-09-13T01:40:42;8.50;;;7.70;;
11064;SDS011;5585;52.530;7.320;2022-09-13T01:43:18;8.98;;;8.07;;
11064;SDS011;5585;52.530;7.320;2022-09-13T01:45:52;9.02;;;8.13;;
11064;SDS011;5585;52.530;7.320;2022-09-13T01:48:19;9.25;;;7.32;;
11064;SDS011;5585;52.530;7.320;2022-09-13T01:50:50;8.23;;;7.43;;
11064;SDS011;5585;52.530;7.320;2022-09-13T01:53:19;8.75;;;7.85;;
11064;SDS011;5585;52.530;7.320;2022-09-13T01:55:55;8.98;;;8.00;;
11064;SDS011;5585;52.530;7.320;2022-09-13T01:58:25;9.27;;;8.38;;
11064;SDS011;5585;52.530;7.320;2022-09-13T02:00:55;9.30;;;8.45;;
11064;SDS011;5585;52.530;7.320;2022-09-13T02:03:26;8.60;;;7.80;;
11064;SDS011;5585;52.530;7.320;2022-09-13T02:05:54;8.90;;;8.00;;
11064;SDS011;5585;52.530;7.320;2022-09-13T02:08:22;9.07;;;8.07;;
11064;SDS011;5585;52.530;7.320;2022-09-13T02:10:50;9.48;;;8.45;;
11064;SDS011;5585;52.530;7.320;2022-09-13T02:13:19;8.90;;;8.07;;
11064;SDS011;5585;52.530;7.320;2022-09-13T02:15:47;8.98;;;8.07;;
11064;SDS011;5585;52.530;7.320;2022-09-13T02:18:16;9.05;;;8.23;;
11064;SDS011;5585;52.530;7.320;2022-09-13T02:20:46;8.88;;;8.07;;
11064;SDS011;5585;52.530;7.320;2022-09-13T02:23:13;8.30;;;7.40;;
11064;SDS011;5585;52.530;7.320;2022-09-13T02:25:41;7.93;;;7.22;;
11064;SDS011;5585;52.530;7.320;2022-09-13T02:28:10;8.68;;;7.88;;
11064;SDS011;5585;52.530;7.320;2022-09-13T02:30:39;8.07;;;7.28;;
11064;SDS011;5585;52.530;7.320;2022-09-13T02:33:07;9.50;;;8.60;;
11064;SDS011;5585;52.530;7.320;2022-09-13T02:35:37;9.75;;;8.75;;
11064;SDS011;5585;52.530;7.320;2022-09-13T02:38:06;9.30;;;8.38;;
11064;SDS011;5585;52.530;7.320;2022-09-13T02:40:36;8.88;;;7.97;;
11064;SDS011;5585;52.530;7.320;2022-09-13T02:43:05;9.38;;;8.00;;
11064;SDS011;5585;52.530;7.320;2022-09-13T02:45:35;8.93;;;7.97;;
11064;SDS011;5585;52.530;7.320;2022-09-13T02:48:07;8.85;;;7.68;;
11064;SDS011;5585;52.530;7.320;2022-09-13T02:50:39;8.88;;;7.97;;
11064;SDS011;5585;52.530;7.320;2022-09-13T02:53:10;8.63;;;7.85;;
11064;SDS011;5585;52.530;7.320;2022-09-13T02:55:40;9.38;;;8.48;;
11064;SDS011;5585;52.530;7.320;2022-09-13T02:58:08;8.90;;;8.10;;
11064;SDS011;5585;52.530;7.320;2022-09-13T03:00:36;9.38;;;8.45;;
11064;SDS011;5585;52.530;7.320;2022-09-13T03:03:03;9.85;;;8.43;;
11064;SDS011;5585;52.530;7.320;2022-09-13T03:05:31;10.15;;;9.05;;
11064;SDS011;5585;52.530;7.320;2022-09-13T03:07:59;9.23;;;8.32;;
11064;SDS011;5585;52.530;7.320;2022-09-13T03:10:26;9.75;;;8.75;;
11064;SDS011;5585;52.530;7.320;2022-09-13T03:13:10;9.75;;;8.80;;
11064;SDS011;5585;52.530;7.320;2022-09-13T03:15:44;10.27;;;8.73;;
11064;SDS011;5585;52.530;7.320;2022-09-13T03:18:18;10.30;;;9.20;;
11064;SDS011;5585;52.530;7.320;2022-09-13T03:20:49;10.27;;;9.18;;
11064;SDS011;5585;52.530;7.320;2022-09-13T03:23:26;9.18;;;8.32;;
11064;SDS011;5585;52.530;7.320;2022-09-13T03:25:59;9.63;;;8.68;;
11064;SDS011;5585;52.530;7.320;2022-09-13T03:28:32;8.85;;;8.05;;
11064;SDS011;5585;52.530;7.320;2022-09-13T03:31:00;9.35;;;8.40;;
11064;SDS011;5585;52.530;7.320;2022-09-13T03:33:30;9.60;;;8.70;;
11064;SDS011;5585;52.530;7.320;2022-09-13T03:36:00;9.80;;;8.80;;
11064;SDS011;5585;52.530;7.320;2022-09-13T03:38:31;9.13;;;8.20;;
11064;SDS011;5585;52.530;7.320;2022-09-13T03:40:59;8.93;;;8.13;;
11064;SDS011;5585;52.530;7.320;2022-09-13T03:43:31;10.07;;;8.60;;
11064;SDS011;5585;52.530;7.320;2022-09-13T03:46:01;9.63;;;8.63;;
11064;SDS011;5585;52.530;7.320;2022-09-13T03:48:30;9.63;;;8.63;;
11064;SDS011;5585;52.530;7.320;2022-09-13T03:50:57;9.25;;;8.35;;
11064;SDS011;5585;52.530;7.320;2022-09-13T03:53:24;9.57;;;8.57;;
11064;SDS011;5585;52.530;7.320;2022-09-13T03:55:52;9.65;;;8.25;;
11064;SDS011;5585;52.530;7.320;2022-09-13T03:58:19;9.98;;;8.98;;
11064;SDS011;5585;52.530;7.320;2022-09-13T04:00:46;9.73;;;8.73;;
11064;SDS011;5585;52.530;7.320;2022-09-13T04:03:13;10.82;;;8.55;;
11064;SDS011;5585;52.530;7.320;2022-09-13T04:05:39;9.90;;;8.65;;
11064;SDS011;5585;52.530;7.320;2022-09-13T04:08:06;9.85;;;8.90;;
11064;SDS011;5585;52.530;7.320;2022-09-13T04:10:33;9.65;;;8.65;;
11064;SDS011;5585;52.530;7.320;2022-09-13T04:13:01;9.63;;;8.65;;
11064;SDS011;5585;52.530;7.320;2022-09-13T04:15:28;9.48;;;8.57;;
11064;SDS011;5585;52.530;7.320;2022-09-13T04:17:56;8.82;;;8.02;;
11064;SDS011;5585;52.530;7.320;2022-09-13T04:20:22;8.82;;;7.93;;
11064;SDS011;5585;52.530;7.320;2022-09-13T04:22:52;8.85;;;7.95;;
11064;SDS011;5585;52.530;7.320;2022-09-13T04:25:19;9.85;;;8.85;;
11064;SDS011;5585;52.530;7.320;2022-09-13T04:27:46;9.98;;;9.00;;
11064;SDS011;5585;52.530;7.320;2022-09-13T04:30:14;9.27;;;8.32;;
11064;SDS011;5585;52.530;7.320;2022-09-13T04:32:41;10.88;;;9.80;;
11064;SDS011;5585;52.530;7.320;2022-09-13T04:35:07;9.25;;;8.27;;
11064;SDS011;5585;52.530;7.320;2022-09-13T04:37:34;10.35;;;9.25;;
11064;SDS011;5585;52.530;7.320;2022-09-13T04:40:00;10.05;;;9.05;;
11064;SDS011;5585;52.530;7.320;2022-09-13T04:42:27;9.60;;;8.63;;
11064;SDS011;5585;52.530;7.320;2022-09-13T04:44:53;10.15;;;9.15;;
11064;SDS011;5585;52.530;7.320;2022-09-13T04:47:21;10.23;;;9.23;;
11064;SDS011;5585;52.530;7.320;2022-09-13T04:49:48;10.45;;;9.35;;
11064;SDS011;5585;52.530;7.320;2022-09-13T04:52:15;9.80;;;8.55;;
11064;SDS011;5585;52.530;7.320;2022-09-13T04:54:41;9.70;;;8.70;;
11064;SDS011;5585;52.530;7.320;2022-09-13T04:57:07;10.60;;;9.52;;
11064;SDS011;5585;52.530;7.320;2022-09-13T04:59:34;11.70;;;9.60;;
11064;SDS011;5585;52.530;7.320;2022-09-13T05:02:00;11.65;;;9.52;;
11064;SDS011;5585;52.530;7.320;2022-09-13T05:04:28;9.55;;;8.55;;
11064;SDS011;5585;52.530;7.320;2022-09-13T05:06:54;9.82;;;8.80;;
11064;SDS011;5585;52.530;7.320;2022-09-13T05:09:22;10.40;;;9.40;;
11064;SDS011;5585;52.530;7.320;2022-09-13T05:11:49;10.23;;;9.23;;
11064;SDS011;5585;52.530;7.320;2022-09-13T05:14:15;10.63;;;9.13;;
11064;SDS011;5585;52.530;7.320;2022-09-13T05:16:42;11.35;;;9.52;;
11064;SDS011;5585;52.530;7.320;2022-09-13T05:19:08;9.88;;;8.85;;
11064;SDS011;5585;52.530;7.320;2022-09-13T05:21:37;10.25;;;8.57;;
11064;SDS011;5585;52.530;7.320;2022-09-13T05:24:03;11.23;;;9.35;;
11064;SDS011;5585;52.530;7.320;2022-09-13T05:26:30;10.70;;;9.57;;
11064;SDS011;5585;52.530;7.320;2022-09-13T05:28:57;10.93;;;9.82;;
11064;SDS011;5585;52.530;7.320;2022-09-13T05:31:24;10.88;;;9.50;;
11064;SDS011;5585;52.530;7.320;2022-09-13T05:33:52;9.98;;;8.98;;
11064;SDS011;5585;52.530;7.320;2022-09-13T05:36:19;10.15;;;9.15;;
11064;SDS011;5585;52.530;7.320;2022-09-13T05:38:47;9.73;;;8.73;;
11064;SDS011;5585;52.530;7.320;2022-09-13T05:41:13;9.85;;;8.93;;
11064;SDS011;5585;52.530;7.320;2022-09-13T05:43:40;9.70;;;8.70;;
11064;SDS011;5585;52.530;7.320;2022-09-13T05:46:07;9.95;;;8.82;;
11064;SDS011;5585;52.530;7.320;2022-09-13T05:48:35;9.93;;;8.93;;
11064;SDS011;5585;52.530;7.320;2022-09-13T05:51:05;10.05;;;8.98;;
11064;SDS011;5585;52.530;7.320;2022-09-13T05:53:31;10.23;;;8.75;;
11064;SDS011;5585;52.530;7.320;2022-09-13T05:55:59;10.23;;;9.13;;
11064;SDS011;5585;52.530;7.320;2022-09-13T05:58:26;10.88;;;9.10;;
11064;SDS011;5585;52.530;7.320;2022-09-13T06:00:52;10.80;;;9.70;;
11064;SDS011;5585;52.530;7.320;2022-09-13T06:03:19;10.15;;;9.02;;
11064;SDS011;5585;52.530;7.320;2022-09-13T06:05:46;11.07;;;9.82;;
11064;SDS011;5585;52.530;7.320;2022-09-13T06:08:12;10.02;;;9.02;;
11064;SDS011;5585;52.530;7.320;2022-09-13T06:10:38;10.48;;;9.38;;
11064;SDS011;5585;52.530;7.320;2022-09-13T06:13:06;10.90;;;9.02;;
11064;SDS011;5585;52.530;7.320;2022-09-13T06:15:33;11.55;;;10.20;;
11064;SDS011;5585;52.530;7.320;2022-09-13T06:17:59;11.50;;;10.30;;
11064;SDS011;5585;52.530;7.320;2022-09-13T06:20:25;10.45;;;9.30;;
11064;SDS011;5585;52.530;7.320;2022-09-13T06:22:52;11.18;;;9.95;;
11064;SDS011;5585;52.530;7.320;2022-09-13T06:25:18;11.15;;;10.02;;
11064;SDS011;5585;52.530;7.320;2022-09-13T06:27:45;11.25;;;10.00;;
11064;SDS011;5585;52.530;7.320;2022-09-13T06:30:13;12.30;;;9.95;;
11064;SDS011;5585;52.530;7.320;2022-09-13T06:32:39;10.38;;;9.38;;
11064;SDS011;5585;52.530;7.320;2022-09-13T06:35:06;11.43;;;10.05;;
11064;SDS011;5585;52.530;7.320;2022-09-13T06:37:33;11.73;;;10.48;;
11064;SDS011;5585;52.530;7.320;2022-09-13T06:39:59;11.00;;;9.90;;
11064;SDS011;5585;52.530;7.320;2022-09-13T06:42:27;13.05;;;11.18;;
11064;SDS011;5585;52.530;7.320;2022-09-13T06:44:53;11.45;;;10.25;;
11064;SDS011;5585;52.530;7.320;2022-09-13T06:47:21;11.50;;;10.32;;
11064;SDS011;5585;52.530;7.320;2022-09-13T06:49:47;10.95;;;9.82;;
11064;SDS011;5585;52.530;7.320;2022-09-13T06:52:14;10.88;;;9.75;;
11064;SDS011;5585;52.530;7.320;2022-09-13T06:54:40;12.13;;;10.30;;
11064;SDS011;5585;52.530;7.320;2022-09-13T06:57:07;10.95;;;8.80;;
11064;SDS011;5585;52.530;7.320;2022-09-13T06:59:34;7.72;;;6.93;;
11064;SDS011;5585;52.530;7.320;2022-09-13T07:02:00;10.98;;;9.15;;
11064;SDS011;5585;52.530;7.320;2022-09-13T07:04:28;12.27;;;9.82;;
11064;SDS011;5585;52.530;7.320;2022-09-13T07:06:55;11.55;;;10.35;;
11064;SDS011;5585;52.530;7.320;2022-09-13T07:09:22;11.63;;;9.73;;
11064;SDS011;5585;52.530;7.320;2022-09-13T07:11:49;9.50;;;8.60;;
11064;SDS011;5585;52.530;7.320;2022-09-13T07:14:16;9.68;;;8.35;;
11064;SDS011;5585;52.530;7.320;2022-09-13T07:16:43;9.65;;;8.65;;
11064;SDS011;5585;52.530;7.320;2022-09-13T07:19:11;10.60;;;9.35;;
11064;SDS011;5585;52.530;7.320;2022-09-13T07:21:39;10.35;;;8.63;;
11064;SDS011;5585;52.530;7.320;2022-09-13T07:24:06;11.80;;;10.55;;
11064;SDS011;5585;52.530;7.320;2022-09-13T07:26:32;11.13;;;10.00;;
11064;SDS011;5585;52.530;7.320;2022-09-13T07:28:59;11.52;;;10.43;;
11064;SDS011;5585;52.530;7.320;2022-09-13T07:31:27;12.23;;;9.85;;
11064;SDS011;5585;52.530;7.320;2022-09-13T07:33:54;11.52;;;10.38;;
11064;SDS011;5585;52.530;7.320;2022-09-13T07:36:21;11.68;;;9.93;;
11064;SDS011;5585;52.530;7.320;2022-09-13T07:38:49;10.38;;;9.25;;
11064;SDS011;5585;52.530;7.320;2022-09-13T07:41:17;11.25;;;9.75;;
11064;SDS011;5585;52.530;7.320;2022-09-13T07:43:43;10.80;;;9.65;;
11064;SDS011;5585;52.530;7.320;2022-09-13T07:46:10;10.20;;;9.05;;
11064;SDS011;5585;52.530;7.320;2022-09-13T07:48:38;11.13;;;9.55;;
11064;SDS011;5585;52.530;7.320;2022-09-13T07:51:05;11.13;;;9.90;;
11064;SDS011;5585;52.530;7.320;2022-09-13T07:53:33;12.32;;;9.98;;
11064;SDS011;5585;52.530;7.320;2022-09-13T07:56:02;11.20;;;9.35;;
11064;SDS011;5585;52.530;7.320;2022-09-13T07:58:29;9.48;;;8.48;;
11064;SDS011;5585;52.530;7.320;2022-09-13T08:00:56;9.05;;;8.00;;
11064;SDS011;5585;52.530;7.320;2022-09-13T08:03:25;9.15;;;8.25;;
11064;SDS011;5585;52.530;7.320;2022-09-13T08:05:51;8.32;;;7.32;;
11064;SDS011;5585;52.530;7.320;2022-09-13T08:08:17;9.45;;;7.80;;
11064;SDS011;5585;52.530;7.320;2022-09-13T08:10:44;8.45;;;7.63;;
11064;SDS011;5585;52.530;7.320;2022-09-13T08:13:12;8.50;;;7.70;;
11064;SDS011;5585;52.530;7.320;2022-09-13T08:15:40;6.97;;;6.28;;
11064;SDS011;5585;52.530;7.320;2022-09-13T08:18:06;7.28;;;6.28;;
11064;SDS011;5585;52.530;7.320;2022-09-13T08:20:34;6.70;;;6.05;;
11064;SDS011;5585;52.530;7.320;2022-09-13T08:23:01;7.05;;;6.20;;
11064;SDS011;5585;52.530;7.320;2022-09-13T08:25:27;5.75;;;4.95;;
11064;SDS011;5585;52.530;7.320;2022-09-13T08:27:55;6.07;;;4.82;;
11064;SDS011;5585;52.530;7.320;2022-09-13T08:30:23;4.68;;;4.28;;
11064;SDS011;5585;52.530;7.320;2022-09-13T08:32:52;5.28;;;4.75;;
11064;SDS011;5585;52.530;7.320;2022-09-13T08:35:19;4.40;;;3.88;;
11064;SDS011;5585;52.530;7.320;2022-09-13T08:37:45;4.43;;;4.00;;
11064;SDS011;5585;52.530;7.320;2022-09-13T08:40:12;4.65;;;4.07;;
11064;SDS011;5585;52.530;7.320;2022-09-13T08:42:43;4.13;;;3.53;;
11064;SDS011;5585;52.530;7.320;2022-09-13T08:45:11;5.50;;;4.38;;
11064;SDS011;5585;52.530;7.320;2022-09-13T08:47:39;4.97;;;3.53;;
11064;SDS011;5585;52.530;7.320;2022-09-13T08:50:10;5.05;;;4.20;;
11064;SDS011;5585;52.530;7.320;2022-09-13T08:52:39;6.88;;;4.82;;
11064;SDS011;5585;52.530;7.320;2022-09-13T08:55:17;4.07;;;3.67;;
11064;SDS011;5585;52.530;7.320;2022-09-13T08:57:46;4.72;;;4.15;;
11064;SDS011;5585;52.530;7.320;2022-09-13T09:00:16;5.00;;;4.38;;
11064;SDS011;5585;52.530;7.320;2022-09-13T09:02:49;4.80;;;4.40;;
11064;SDS011;5585;52.530;7.320;2022-09-13T09:05:19;4.65;;;3.78;;
11064;SDS011;5585;52.530;7.320;2022-09-13T09:07:47;5.10;;;3.88;;
11064;SDS011;5585;52.530;7.320;2022-09-13T09:10:16;4.75;;;4.20;;
11064;SDS011;5585;52.530;7.320;2022-09-13T09:12:44;4.63;;;4.18;;
11064;SDS011;5585;52.530;7.320;2022-09-13T09:15:13;3.58;;;3.25;;
11064;SDS011;5585;52.530;7.320;2022-09-13T09:17:44;3.13;;;2.72;;
11064;SDS011;5585;52.530;7.320;2022-09-13T09:20:17;3.75;;;3.10;;
11064;SDS011;5585;52.530;7.320;2022-09-13T09:22:46;2.28;;;2.08;;
11064;SDS011;5585;52.530;7.320;2022-09-13T09:25:13;2.70;;;1.88;;
11064;SDS011;5585;52.530;7.320;2022-09-13T09:27:39;1.60;;;1.50;;
11064;SDS011;5585;52.530;7.320;2022-09-13T09:30:11;2.10;;;1.30;;
11064;SDS011;5585;52.530;7.320;2022-09-13T09:35:28;2.15;;;1.15;;
11064;SDS011;5585;52.530;7.320;2022-09-13T09:38:02;1.42;;;1.33;;
11064;SDS011;5585;52.530;7.320;2022-09-13T09:40:31;1.70;;;1.38;;
11064;SDS011;5585;52.530;7.320;2022-09-13T09:42:58;1.23;;;1.02;;
11064;SDS011;5585;52.530;7.320;2022-09-13T09:45:26;1.20;;;1.10;;
11064;SDS011;5585;52.530;7.320;2022-09-13T09:47:53;2.85;;;1.40;;
11064;SDS011;5585;52.530;7.320;2022-09-13T09:50:21;1.40;;;0.90;;
11064;SDS011;5585;52.530;7.320;2022-09-13T09:52:51;2.05;;;0.80;;
11064;SDS011;5585;52.530;7.320;2022-09-13T09:55:24;1.25;;;0.90;;
11064;SDS011;5585;52.530;7.320;2022-09-13T09:57:52;1.77;;;0.70;;
11064;SDS011;5585;52.530;7.320;2022-09-13T10:00:20;2.88;;;1.00;;
11064;SDS011;5585;52.530;7.320;2022-09-13T10:02:47;1.63;;;1.00;;
11064;SDS011;5585;52.530;7.320;2022-09-13T10:05:16;1.88;;;0.80;;
11064;SDS011;5585;52.530;7.320;2022-09-13T10:07:48;2.92;;;1.00;;
11064;SDS011;5585;52.530;7.320;2022-09-13T10:10:20;2.17;;;0.80;;
11064;SDS011;5585;52.530;7.320;2022-09-13T10:12:48;2.72;;;0.90;;
11064;SDS011;5585;52.530;7.320;2022-09-13T10:15:17;1.70;;;0.65;;
11064;SDS011;5585;52.530;7.320;2022-09-13T10:17:59;3.22;;;0.85;;
11064;SDS011;5585;52.530;7.320;2022-09-13T10:20:26;1.15;;;0.60;;
11064;SDS011;5585;52.530;7.320;2022-09-13T10:23:08;1.30;;;0.50;;
11064;SDS011;5585;52.530;7.320;2022-09-13T10:25:37;2.70;;;0.80;;
11064;SDS011;5585;52.530;7.320;2022-09-13T10:28:04;2.13;;;0.70;;
11064;SDS011;5585;52.530;7.320;2022-09-13T10:30:34;1.95;;;0.65;;
11064;SDS011;5585;52.530;7.320;2022-09-13T10:33:01;2.55;;;0.82;;
11064;SDS011;5585;52.530;7.320;2022-09-13T10:35:29;2.63;;;0.70;;
11064;SDS011;5585;52.530;7.320;2022-09-13T10:37:55;1.00;;;0.60;;
11064;SDS011;5585;52.530;7.320;2022-09-13T10:40:23;1.48;;;0.60;;
11064;SDS011;5585;52.530;7.320;2022-09-13T10:42:53;1.58;;;0.70;;
11064;SDS011;5585;52.530;7.320;2022-09-13T10:45:22;1.45;;;0.60;;
11064;SDS011;5585;52.530;7.320;2022-09-13T10:47:49;1.70;;;0.70;;
11064;SDS011;5585;52.530;7.320;2022-09-13T10:50:17;1.50;;;0.60;;
11064;SDS011;5585;52.530;7.320;2022-09-13T10:52:44;2.67;;;0.75;;
11064;SDS011;5585;52.530;7.320;2022-09-13T10:55:21;0.95;;;0.57;;
11064;SDS011;5585;52.530;7.320;2022-09-13T10:57:49;1.60;;;0.82;;
11064;SDS011;5585;52.530;7.320;2022-09-13T11:00:18;1.30;;;0.60;;
11064;SDS011;5585;52.530;7.320;2022-09-13T11:02:48;1.15;;;0.55;;
11064;SDS011;5585;52.530;7.320;2022-09-13T11:05:21;2.45;;;0.70;;
11064;SDS011;5585;52.530;7.320;2022-09-13T11:08:00;2.65;;;0.82;;
11064;SDS011;5585;52.530;7.320;2022-09-13T11:10:33;2.22;;;0.73;;
11064;SDS011;5585;52.530;7.320;2022-09-13T11:13:04;0.80;;;0.50;;
11064;SDS011;5585;52.530;7.320;2022-09-13T11:15:44;1.13;;;0.50;;
11064;SDS011;5585;52.530;7.320;2022-09-13T11:18:18;1.08;;;0.50;;
11064;SDS011;5585;52.530;7.320;2022-09-13T11:20:49;1.75;;;0.88;;
11064;SDS011;5585;52.530;7.320;2022-09-13T11:23:28;1.38;;;0.80;;
11064;SDS011;5585;52.530;7.320;2022-09-13T11:26:03;1.70;;;0.40;;
11064;SDS011;5585;52.530;7.320;2022-09-13T11:28:34;1.40;;;0.50;;
11064;SDS011;5585;52.530;7.320;2022-09-13T11:31:08;2.78;;;0.70;;
11064;SDS011;5585;52.530;7.320;2022-09-13T11:33:42;0.88;;;0.47;;
11064;SDS011;5585;52.530;7.320;2022-09-13T11:39:00;1.23;;;0.90;;
11064;SDS011;5585;52.530;7.320;2022-09-13T11:41:31;2.05;;;0.57;;
11064;SDS011;5585;52.530;7.320;2022-09-13T11:44:15;0.52;;;0.43;;
11064;SDS011;5585;52.530;7.320;2022-09-13T11:46:45;0.57;;;0.30;;
11064;SDS011;5585;52.530;7.320;2022-09-13T11:49:21;1.90;;;0.60;;
11064;SDS011;5585;52.530;7.320;2022-09-13T11:51:53;0.47;;;0.30;;
11064;SDS011;5585;52.530;7.320;2022-09-13T11:54:26;1.50;;;0.60;;
11064;SDS011;5585;52.530;7.320;2022-09-13T11:56:54;0.88;;;0.40;;
11064;SDS011;5585;52.530;7.320;2022-09-13T11:59:26;1.40;;;0.50;;
11064;SDS011;5585;52.530;7.320;2022-09-13T12:01:55;1.10;;;0.52;;
11064;SDS011;5585;52.530;7.320;2022-09-13T12:04:24;2.42;;;0.40;;
11064;SDS011;5585;52.530;7.320;2022-09-13T12:06:53;1.13;;;0.52;;
11064;SDS011;5585;52.530;7.320;2022-09-13T12:09:22;1.15;;;0.45;;
11064;SDS011;5585;52.530;7.320;2022-09-13T12:11:51;1.38;;;0.60;;
11064;SDS011;5585;52.530;7.320;2022-09-13T12:14:20;1.38;;;0.70;;
11064;SDS011;5585;52.530;7.320;2022-09-13T12:16:48;1.27;;;0.47;;
11064;SDS011;5585;52.530;7.320;2022-09-13T12:19:17;1.55;;;0.47;;
11064;SDS011;5585;52.530;7.320;2022-09-13T12:21:46;1.33;;;0.60;;
11064;SDS011;5585;52.530;7.320;2022-09-13T12:24:13;1.38;;;0.47;;
11064;SDS011;5585;52.530;7.320;2022-09-13T12:26:42;1.30;;;0.60;;
11064;SDS011;5585;52.530;7.320;2022-09-13T12:29:13;1.98;;;0.40;;
11064;SDS011;5585;52.530;7.320;2022-09-13T12:31:39;0.90;;;0.60;;
11064;SDS011;5585;52.530;7.320;2022-09-13T12:34:07;1.17;;;0.70;;
11064;SDS011;5585;52.530;7.320;2022-09-13T12:36:41;1.63;;;0.60;;
11064;SDS011;5585;52.530;7.320;2022-09-13T12:42:19;2.08;;;0.73;;
11064;SDS011;5585;52.530;7.320;2022-09-13T12:44:53;1.67;;;0.50;;
11064;SDS011;5585;52.530;7.320;2022-09-13T12:47:32;1.63;;;0.55;;
11064;SDS011;5585;52.530;7.320;2022-09-13T12:50:21;1.55;;;0.50;;
11064;SDS011;5585;52.530;7.320;2022-09-13T12:52:54;1.58;;;0.47;;
11064;SDS011;5585;52.530;7.320;2022-09-13T12:55:29;12.50;;;2.78;;
11064;SDS011;5585;52.530;7.320;2022-09-13T12:58:02;4.07;;;0.82;;
11064;SDS011;5585;52.530;7.320;2022-09-13T13:00:35;2.95;;;0.82;;
11064;SDS011;5585;52.530;7.320;2022-09-13T13:03:03;1.33;;;0.63;;
11064;SDS011;5585;52.530;7.320;2022-09-13T13:05:36;1.85;;;0.60;;
11064;SDS011;5585;52.530;7.320;2022-09-13T13:08:05;1.23;;;0.60;;
11064;SDS011;5585;52.530;7.320;2022-09-13T13:10:42;1.77;;;0.40;;
11064;SDS011;5585;52.530;7.320;2022-09-13T13:13:09;2.10;;;0.50;;
11064;SDS011;5585;52.530;7.320;2022-09-13T13:18:43;1.27;;;0.50;;
11064;SDS011;5585;52.530;7.320;2022-09-13T13:26:45;0.88;;;0.50;;
11064;SDS011;5585;52.530;7.320;2022-09-13T13:29:13;2.22;;;0.88;;
11064;SDS011;5585;52.530;7.320;2022-09-13T13:31:44;2.10;;;0.60;;
11064;SDS011;5585;52.530;7.320;2022-09-13T13:34:28;0.73;;;0.43;;
11064;SDS011;5585;52.530;7.320;2022-09-13T13:36:56;1.10;;;0.38;;
11064;SDS011;5585;52.530;7.320;2022-09-13T13:39:34;1.05;;;0.35;;
11064;SDS011;5585;52.530;7.320;2022-09-13T13:42:09;1.27;;;0.50;;
11064;SDS011;5585;52.530;7.320;2022-09-13T13:44:56;1.08;;;0.60;;
11064;SDS011;5585;52.530;7.320;2022-09-13T13:50:12;1.83;;;0.55;;
11064;SDS011;5585;52.530;7.320;2022-09-13T13:52:40;1.27;;;0.47;;
11064;SDS011;5585;52.530;7.320;2022-09-13T13:55:30;2.22;;;0.60;;
11064;SDS011;5585;52.530;7.320;2022-09-13T13:58:07;0.93;;;0.65;;
11064;SDS011;5585;52.530;7.320;2022-09-13T14:00:35;2.45;;;0.50;;
11064;SDS011;5585;52.530;7.320;2022-09-13T14:03:13;1.55;;;0.43;;
11064;SDS011;5585;52.530;7.320;2022-09-13T14:05:43;2.00;;;0.40;;
11064;SDS011;5585;52.530;7.320;2022-09-13T14:10:53;2.83;;;0.57;;
11064;SDS011;5585;52.530;7.320;2022-09-13T14:13:30;2.30;;;0.57;;
11064;SDS011;5585;52.530;7.320;2022-09-13T14:16:00;1.85;;;0.73;;
11064;SDS011;5585;52.530;7.320;2022-09-13T14:18:42;0.68;;;0.50;;
11064;SDS011;5585;52.530;7.320;2022-09-13T14:21:23;1.48;;;0.50;;
11064;SDS011;5585;52.530;7.320;2022-09-13T14:23:54;0.82;;;0.50;;
11064;SDS011;5585;52.530;7.320;2022-09-13T14:26:33;2.28;;;0.60;;
11064;SDS011;5585;52.530;7.320;2022-09-13T14:29:02;3.80;;;0.60;;
11064;SDS011;5585;52.530;7.320;2022-09-13T14:31:30;1.10;;;0.57;;
11064;SDS011;5585;52.530;7.320;2022-09-13T14:33:57;1.30;;;0.40;;
11064;SDS011;5585;52.530;7.320;2022-09-13T14:36:23;2.42;;;0.50;;
11064;SDS011;5585;52.530;7.320;2022-09-13T14:38:52;1.35;;;0.50;;
11064;SDS011;5585;52.530;7.320;2022-09-13T14:41:19;2.83;;;0.50;;
11064;SDS011;5585;52.530;7.320;2022-09-13T14:43:46;1.80;;;0.50;;
11064;SDS011;5585;52.530;7.320;2022-09-13T14:46:15;0.70;;;0.50;;
11064;SDS011;5585;52.530;7.320;2022-09-13T14:48:45;1.63;;;0.50;;
11064;SDS011;5585;52.530;7.320;2022-09-13T14:51:13;0.73;;;0.20;;
11064;SDS011;5585;52.530;7.320;2022-09-13T14:53:42;0.40;;;0.30;;
11064;SDS011;5585;52.530;7.320;2022-09-13T14:56:11;1.15;;;0.40;;
11064;SDS011;5585;52.530;7.320;2022-09-13T14:58:41;2.25;;;0.50;;
11064;SDS011;5585;52.530;7.320;2022-09-13T15:01:10;0.50;;;0.40;;
11064;SDS011;5585;52.530;7.320;2022-09-13T15:03:41;3.83;;;0.50;;
11064;SDS011;5585;52.530;7.320;2022-09-13T15:06:17;1.05;;;0.47;;
11064;SDS011;5585;52.530;7.320;2022-09-13T15:08:45;2.08;;;0.40;;
11064;SDS011;5585;52.530;7.320;2022-09-13T15:11:13;0.65;;;0.43;;
11064;SDS011;5585;52.530;7.320;2022-09-13T15:13:39;2.83;;;0.70;;
11064;SDS011;5585;52.530;7.320;2022-09-13T15:19:13;4.28;;;0.75;;
11064;SDS011;5585;52.530;7.320;2022-09-13T15:21:36;2.63;;;0.60;;
11064;SDS011;5585;52.530;7.320;2022-09-13T15:24:02;1.88;;;0.73;;
11064;SDS011;5585;52.530;7.320;2022-09-13T15:26:29;2.00;;;1.70;;
11064;SDS011;5585;52.530;7.320;2022-09-13T15:28:57;1.55;;;0.70;;
11064;SDS011;5585;52.530;7.320;2022-09-13T15:31:28;1.65;;;0.45;;
11064;SDS011;5585;52.530;7.320;2022-09-13T15:34:16;0.88;;;0.50;;
11064;SDS011;5585;52.530;7.320;2022-09-13T15:36:45;2.90;;;0.75;;
11064;SDS011;5585;52.530;7.320;2022-09-13T15:39:13;0.57;;;0.20;;
11064;SDS011;5585;52.530;7.320;2022-09-13T15:41:50;1.90;;;0.43;;